Time;durP1;ratioP1;P1;durP2;ratioP2;P2;SDS_P1;SDS_P2;PMS_P1;PMS_P2;Temp;Humidity;BMP_temperature;BMP_pressure;BME280_temperature;BME280_humidity;BME280_pressure;Samples;Min_cycle;Max_cycle;Signal;HPM_P1;HPM_P2
2022/04/16 00:01:04;;;;;;;0.60;0.20;;;10.80;1.00;;;;;;5033638;28;20463;-72
2022/04/16 00:03:33;;;;;;;0.77;0.30;;;10.70;1.00;;;;;;5033663;28;20486;-71
2022/04/16 00:06:02;;;;;;;0.80;0.77;;;10.70;1.00;;;;;;5033200;28;20534;-72
2022/04/16 00:08:30;;;;;;;0.60;0.30;;;10.70;1.00;;;;;;5032167;28;20447;-72
2022/04/16 00:11:00;;;;;;;0.60;0.30;;;10.70;1.00;;;;;;5024283;28;21240;-72
2022/04/16 00:13:29;;;;;;;0.60;0.10;;;10.70;1.00;;;;;;5027098;28;20464;-72
2022/04/16 00:15:57;;;;;;;0.70;0.20;;;10.70;1.00;;;;;;5027832;28;20447;-73
2022/04/16 00:18:26;;;;;;;0.60;0.20;;;10.70;1.00;;;;;;5031895;28;20443;-73
2022/04/16 00:20:54;;;;;;;0.70;0.40;;;10.70;1.00;;;;;;5032235;28;20782;-73
2022/04/16 00:23:22;;;;;;;0.60;0.10;;;10.70;1.00;;;;;;5032372;28;20483;-74
2022/04/16 00:25:50;;;;;;;0.60;0.20;;;10.70;1.00;;;;;;5031918;28;20500;-73
2022/04/16 00:28:19;;;;;;;0.93;0.50;;;10.70;1.00;;;;;;5031816;28;20455;-73
2022/04/16 00:30:47;;;;;;;0.60;0.20;;;10.70;1.00;;;;;;5032485;28;20489;-72
2022/04/16 00:33:18;;;;;;;1.03;0.93;;;10.70;1.00;;;;;;5032720;28;20455;-73
2022/04/16 00:35:46;;;;;;;0.60;0.20;;;10.70;1.00;;;;;;5031736;28;20450;-74
2022/04/16 00:38:14;;;;;;;1.63;1.27;;;10.70;1.00;;;;;;5031179;28;20442;-74
2022/04/16 00:40:42;;;;;;;0.60;0.20;;;10.70;1.00;;;;;;5031706;28;20950;-74
2022/04/16 00:43:21;;;;;;;0.60;0.10;;;;;;;;;;5031761;28;20446;-73
2022/04/16 00:45:50;;;;;;;0.60;0.10;;;10.80;1.00;;;;;;5031663;28;20458;-74
2022/04/16 00:48:18;;;;;;;0.60;0.10;;;11.80;1.00;;;;;;5031349;28;20447;-71
2022/04/16 00:50:46;;;;;;;1.10;0.87;;;10.80;1.00;;;;;;5031756;28;20435;-71
2022/04/16 00:53:14;;;;;;;1.00;0.60;;;10.80;1.00;;;;;;5032518;28;20871;-71
2022/04/16 00:55:42;;;;;;;7.50;2.00;;;10.80;1.00;;;;;;5031588;28;20523;-73
2022/04/16 00:58:10;;;;;;;0.60;0.20;;;10.80;1.00;;;;;;5031562;28;20549;-72
2022/04/16 01:00:38;;;;;;;2.93;1.80;;;10.80;1.00;;;;;;5031640;28;20452;-72
2022/04/16 01:03:08;;;;;;;1.10;0.63;;;10.80;1.00;;;;;;5031489;28;20462;-72
2022/04/16 01:05:37;;;;;;;1.00;0.60;;;10.80;1.00;;;;;;5031447;28;20961;-72
2022/04/16 01:08:05;;;;;;;0.70;0.50;;;10.80;1.00;;;;;;5031523;28;20533;-72
2022/04/16 01:10:35;;;;;;;1.40;0.50;;;10.80;1.00;;;;;;5031928;28;20462;-71
2022/04/16 01:13:04;;;;;;;0.80;0.20;;;10.80;1.00;;;;;;5031490;28;21004;-72
2022/04/16 01:15:32;;;;;;;1.87;1.77;;;10.80;1.00;;;;;;5031140;28;20446;-72
2022/04/16 01:18:02;;;;;;;1.03;0.57;;;10.80;1.00;;;;;;5031805;28;20450;-72
2022/04/16 01:20:34;;;;;;;2.97;1.60;;;10.80;1.00;;;;;;5031850;28;20984;-73
2022/04/16 01:23:04;;;;;;;0.60;0.20;;;10.80;1.00;;;;;;5031799;28;20471;-73
2022/04/16 01:25:33;;;;;;;1.13;0.67;;;10.80;1.00;;;;;;5027488;28;20446;-72
2022/04/16 01:28:02;;;;;;;0.60;0.10;;;10.80;1.00;;;;;;5012718;28;20443;-72
2022/04/16 01:30:30;;;;;;;3.63;1.13;;;10.70;1.00;;;;;;5012945;28;20457;-71
2022/04/16 01:32:58;;;;;;;2.03;1.93;;;10.70;1.00;;;;;;5012106;28;20491;-74
2022/04/16 01:35:26;;;;;;;0.60;0.20;;;10.70;1.00;;;;;;5011771;28;20444;-71
2022/04/16 01:37:54;;;;;;;0.60;0.20;;;10.80;1.00;;;;;;5025483;28;20455;-72
2022/04/16 01:40:25;;;;;;;0.60;0.10;;;;;;;;;;5030384;28;20450;-73
2022/04/16 01:42:56;;;;;;;0.60;0.20;;;10.80;1.00;;;;;;5022591;28;20546;-73
2022/04/16 01:45:26;;;;;;;3.83;1.47;;;10.80;1.00;;;;;;5029579;28;20893;-73
2022/04/16 01:47:54;;;;;;;2.13;1.10;;;10.80;1.00;;;;;;5030843;28;20451;-71
2022/04/16 01:50:23;;;;;;;4.33;2.00;;;10.80;1.00;;;;;;5031163;28;20948;-71
2022/04/16 01:52:52;;;;;;;2.10;2.00;;;10.80;1.00;;;;;;5031331;28;20486;-72
2022/04/16 01:55:19;;;;;;;0.60;0.20;;;10.80;1.00;;;;;;5031035;28;20830;-71
2022/04/16 01:57:49;;;;;;;0.70;0.30;;;10.70;1.00;;;;;;5031004;28;21174;-71
2022/04/16 02:00:16;;;;;;;0.93;0.50;;;10.70;1.00;;;;;;5031508;28;20952;-71
2022/04/16 02:02:44;;;;;;;0.60;0.20;;;10.70;1.00;;;;;;5031649;28;20463;-71
2022/04/16 02:05:12;;;;;;;1.83;1.60;;;10.70;1.00;;;;;;5030797;28;20465;-72
2022/04/16 02:07:41;;;;;;;0.60;0.10;;;10.80;1.00;;;;;;5030959;28;20572;-72
2022/04/16 02:10:12;;;;;;;0.60;0.20;;;10.70;1.00;;;;;;5031033;28;20450;-73
2022/04/16 02:12:40;;;;;;;0.60;0.30;;;10.70;1.00;;;;;;5028883;28;20491;-73
2022/04/16 02:15:11;;;;;;;0.60;0.20;;;12.20;1.00;;;;;;5022671;28;20447;-73
2022/04/16 02:17:40;;;;;;;0.63;0.30;;;10.70;1.00;;;;;;5029545;28;20447;-73
2022/04/16 02:20:10;;;;;;;0.90;0.40;;;10.70;1.00;;;;;;5029305;28;20950;-72
2022/04/16 02:22:42;;;;;;;0.60;0.20;;;10.70;1.00;;;;;;5030626;28;20459;-71
2022/04/16 02:25:11;;;;;;;1.73;0.43;;;10.70;1.00;;;;;;5030896;28;20446;-72
2022/04/16 02:27:39;;;;;;;0.80;0.50;;;10.70;1.00;;;;;;5014466;28;20912;-71
2022/04/16 02:30:10;;;;;;;1.47;0.63;;;10.70;1.00;;;;;;5014952;28;20891;-72
2022/04/16 02:32:39;;;;;;;0.60;0.10;;;10.60;1.00;;;;;;5019484;28;20482;-71
2022/04/16 02:35:07;;;;;;;0.60;0.10;;;10.70;1.00;;;;;;5034004;28;20490;-72
2022/04/16 02:37:36;;;;;;;3.07;2.77;;;10.70;1.00;;;;;;5034138;28;20451;-72
2022/04/16 02:40:05;;;;;;;1.70;1.60;;;10.80;1.00;;;;;;5034839;28;20529;-73
2022/04/16 02:42:34;;;;;;;0.60;0.10;;;10.80;1.00;;;;;;5034881;28;20466;-72
2022/04/16 02:47:49;;;;;;;2.60;0.43;;;10.70;1.00;;;;;;5034347;28;20447;-71
2022/04/16 02:50:17;;;;;;;0.60;0.10;;;10.70;1.00;;;;;;5034723;28;20886;-72
2022/04/16 02:52:46;;;;;;;1.03;0.80;;;10.70;1.00;;;;;;5034882;28;20490;-72
2022/04/16 02:55:16;;;;;;;0.60;0.33;;;10.70;1.00;;;;;;5034585;28;20462;-72
2022/04/16 02:57:43;;;;;;;1.10;0.60;;;10.70;1.00;;;;;;5034066;28;20451;-72
2022/04/16 03:00:13;;;;;;;1.37;0.63;;;10.60;1.00;;;;;;5034642;28;20860;-72
2022/04/16 03:02:41;;;;;;;0.63;0.27;;;10.70;1.00;;;;;;5045613;23;20843;-73
2022/04/16 03:05:11;;;;;;;1.63;0.93;;;10.70;1.00;;;;;;5033989;28;20822;-74
2022/04/16 03:07:40;;;;;;;0.90;0.50;;;10.70;1.00;;;;;;5033253;28;20447;-75
2022/04/16 03:10:09;;;;;;;0.80;0.43;;;10.70;1.00;;;;;;5033050;28;20526;-74
2022/04/16 03:12:49;;;;;;;0.60;0.10;;;10.70;1.00;;;;;;5033822;28;20483;-73
2022/04/16 03:18:04;;;;;;;0.60;0.10;;;10.70;1.00;;;;;;5034379;28;20443;-74
2022/04/16 03:20:37;;;;;;;1.47;0.40;;;10.70;1.00;;;;;;5035210;28;20443;-75
2022/04/16 03:23:06;;;;;;;0.60;0.10;;;10.70;1.00;;;;;;5034569;28;20538;-74
2022/04/16 03:25:35;;;;;;;0.60;0.20;;;10.70;1.00;;;;;;5033605;28;20439;-73
2022/04/16 03:28:03;;;;;;;0.60;0.10;;;10.70;1.00;;;;;;5033357;28;20443;-73
2022/04/16 03:30:31;;;;;;;0.70;0.53;;;10.60;1.00;;;;;;5033741;28;20450;-74
2022/04/16 03:32:59;;;;;;;0.60;0.10;;;10.60;1.00;;;;;;5033833;28;20486;-74
2022/04/16 03:35:26;;;;;;;0.60;0.17;;;10.70;1.00;;;;;;5033223;28;20452;-72
2022/04/16 03:37:56;;;;;;;0.60;0.20;;;10.60;1.00;;;;;;5032657;28;20865;-75
2022/04/16 03:40:26;;;;;;;2.60;1.37;;;10.70;1.00;;;;;;5033664;28;20454;-74
2022/04/16 03:42:58;;;;;;;2.30;1.30;;;10.60;1.00;;;;;;5033433;28;20549;-75
2022/04/16 03:45:29;;;;;;;2.93;1.03;;;10.60;1.00;;;;;;5033218;28;20668;-74
2022/04/16 03:47:58;;;;;;;1.30;0.40;;;10.60;1.00;;;;;;5032989;28;20478;-74
2022/04/16 03:50:27;;;;;;;0.70;0.53;;;10.60;1.00;;;;;;5033423;28;20455;-74
2022/04/16 03:52:57;;;;;;;1.40;1.30;;;10.60;1.00;;;;;;5039085;28;20554;-75
2022/04/16 04:01:00;;;;;;;0.60;0.20;;;10.50;1.00;;;;;;5033402;28;20447;-74
2022/04/16 04:03:28;;;;;;;0.60;0.20;;;10.50;1.00;;;;;;5033232;28;20839;-76
2022/04/16 04:05:58;;;;;;;0.77;0.73;;;10.50;1.00;;;;;;5033367;28;20477;-75
2022/04/16 04:08:27;;;;;;;2.40;0.60;;;10.50;1.00;;;;;;5032527;28;20451;-75
2022/04/16 04:10:55;;;;;;;0.60;0.10;;;10.50;1.00;;;;;;5033302;28;20454;-75
2022/04/16 04:13:24;;;;;;;0.90;0.60;;;10.50;1.00;;;;;;5032551;28;20868;-74
2022/04/16 04:15:52;;;;;;;0.80;0.57;;;10.50;1.00;;;;;;5033434;28;20542;-74
2022/04/16 04:18:22;;;;;;;1.17;0.43;;;10.50;1.00;;;;;;5032517;28;20526;-74
2022/04/16 04:20:50;;;;;;;1.10;0.93;;;10.50;1.00;;;;;;5031525;28;20511;-73
2022/04/16 04:23:19;;;;;;;0.60;0.10;;;10.50;1.00;;;;;;5032365;28;20470;-73
2022/04/16 04:25:48;;;;;;;0.60;0.20;;;10.40;1.00;;;;;;5026335;28;20465;-75
2022/04/16 04:28:16;;;;;;;2.80;1.50;;;10.40;1.00;;;;;;5014895;28;20443;-74
2022/04/16 04:30:44;;;;;;;0.60;0.20;;;10.40;1.00;;;;;;5012882;28;20439;-74
2022/04/16 04:33:12;;;;;;;1.43;0.77;;;10.40;1.00;;;;;;5013026;28;20602;-74
2022/04/16 04:35:40;;;;;;;1.73;0.83;;;10.50;1.00;;;;;;5021167;28;20466;-73
2022/04/16 04:38:08;;;;;;;0.60;0.10;;;10.50;1.00;;;;;;5024354;28;20467;-75
2022/04/16 04:40:36;;;;;;;4.50;2.00;;;10.50;1.00;;;;;;5028882;28;20448;-74
2022/04/16 04:43:05;;;;;;;2.90;0.97;;;10.50;1.00;;;;;;5028843;28;20463;-74
2022/04/16 04:45:33;;;;;;;1.13;0.90;;;10.50;1.00;;;;;;5032739;28;20458;-73
2022/04/16 04:48:01;;;;;;;1.90;1.80;;;10.50;1.00;;;;;;5032169;28;20463;-75
2022/04/16 04:50:29;;;;;;;0.60;0.30;;;10.40;1.00;;;;;;5031863;28;20767;-73
2022/04/16 04:52:57;;;;;;;0.77;0.20;;;10.40;1.00;;;;;;5032069;28;20467;-74
2022/04/16 04:55:24;;;;;;;1.30;1.20;;;10.40;1.00;;;;;;5021017;28;20441;-75
2022/04/16 04:57:54;;;;;;;0.70;0.70;;;10.40;1.00;;;;;;5032568;28;20454;-74
2022/04/16 05:00:23;;;;;;;0.70;0.47;;;10.50;1.00;;;;;;5032421;28;20816;-75
2022/04/16 05:02:51;;;;;;;2.10;0.93;;;10.50;1.00;;;;;;5031763;28;20479;-76
2022/04/16 05:05:19;;;;;;;1.80;0.50;;;10.50;1.00;;;;;;5033251;28;20501;-73
2022/04/16 05:07:48;;;;;;;0.60;0.20;;;;;;;;;;5031667;28;20513;-75
2022/04/16 05:10:16;;;;;;;0.60;0.10;;;10.50;1.00;;;;;;5031996;28;20820;-74
2022/04/16 05:12:44;;;;;;;0.70;0.30;;;10.50;1.00;;;;;;5031583;28;20475;-74
2022/04/16 05:15:12;;;;;;;0.90;0.53;;;10.60;1.00;;;;;;5030492;28;20548;-74
2022/04/16 05:17:41;;;;;;;0.60;0.20;;;10.60;1.00;;;;;;5024032;28;20836;-75
2022/04/16 05:20:11;;;;;;;0.60;0.20;;;10.60;1.00;;;;;;5032018;28;20454;-75
2022/04/16 05:22:39;;;;;;;0.60;0.30;;;10.60;1.00;;;;;;5032033;28;20473;-76
2022/04/16 05:25:08;;;;;;;0.60;0.10;;;10.70;1.00;;;;;;5031389;28;20439;-75
2022/04/16 05:27:35;;;;;;;0.60;0.10;;;10.70;1.00;;;;;;5031431;28;20454;-75
2022/04/16 05:30:12;;;;;;;0.60;0.20;;;10.70;1.00;;;;;;5031742;28;20454;-76
2022/04/16 05:32:42;;;;;;;0.60;0.10;;;10.80;1.00;;;;;;5031458;28;20484;-75
2022/04/16 05:35:11;;;;;;;0.60;0.10;;;10.90;1.00;;;;;;5031264;28;20482;-74
2022/04/16 05:37:39;;;;;;;0.60;0.10;;;10.90;1.00;;;;;;5031389;28;20454;-74
2022/04/16 05:40:09;;;;;;;0.90;0.63;;;10.90;1.00;;;;;;5031188;28;20455;-74
2022/04/16 05:42:40;;;;;;;1.47;0.83;;;10.90;1.00;;;;;;5023085;28;20578;-76
2022/04/16 05:45:09;;;;;;;0.60;0.10;;;10.80;1.00;;;;;;5031513;28;20540;-74
2022/04/16 05:47:38;;;;;;;0.60;0.10;;;10.70;1.00;;;;;;5031567;28;21001;-76
2022/04/16 05:50:08;;;;;;;2.13;1.93;;;10.70;1.00;;;;;;5033575;28;20435;-74
2022/04/16 05:52:39;;;;;;;0.60;0.10;;;10.60;1.00;;;;;;5032012;28;20471;-75
2022/04/16 05:55:08;;;;;;;1.83;1.23;;;10.60;1.00;;;;;;5031067;28;20498;-75
2022/04/16 05:57:36;;;;;;;1.33;0.70;;;10.60;1.00;;;;;;5030583;28;20530;-75
2022/04/16 06:00:06;;;;;;;0.90;0.67;;;10.60;1.00;;;;;;5032671;28;20455;-74
2022/04/16 06:02:34;;;;;;;0.60;0.20;;;10.70;1.00;;;;;;5035328;28;21012;-75
2022/04/16 06:05:02;;;;;;;1.20;0.57;;;10.70;1.00;;;;;;5035171;28;20453;-74
2022/04/16 06:07:31;;;;;;;0.60;0.10;;;10.70;1.00;;;;;;5034761;28;20475;-75
2022/04/16 06:09:59;;;;;;;0.60;0.30;;;10.70;1.00;;;;;;5035426;28;20453;-75
2022/04/16 06:12:28;;;;;;;1.57;1.30;;;10.70;1.00;;;;;;5035989;28;20470;-75
2022/04/16 06:14:55;;;;;;;1.03;0.77;;;10.70;1.00;;;;;;5040162;28;20498;-76
2022/04/16 06:17:23;;;;;;;0.60;0.37;;;10.70;1.00;;;;;;5037804;28;20454;-75
2022/04/16 06:19:51;;;;;;;0.60;0.10;;;10.80;1.00;;;;;;5036553;28;20458;-76
2022/04/16 06:22:20;;;;;;;1.63;0.63;;;10.80;1.00;;;;;;5035702;28;20470;-76
2022/04/16 06:24:50;;;;;;;0.60;0.20;;;10.70;1.00;;;;;;5034700;28;20463;-75
2022/04/16 06:27:18;;;;;;;0.90;0.80;;;10.70;1.00;;;;;;5034630;28;20450;-76
2022/04/16 06:29:46;;;;;;;0.93;0.70;;;10.70;1.00;;;;;;5034866;28;20443;-75
2022/04/16 06:32:14;;;;;;;0.80;0.37;;;10.80;1.00;;;;;;5034496;28;20462;-74
2022/04/16 06:34:42;;;;;;;0.60;0.27;;;10.80;1.00;;;;;;5034135;28;20485;-74
2022/04/16 06:37:10;;;;;;;0.70;0.50;;;10.80;1.00;;;;;;5033906;28;20435;-76
2022/04/16 06:39:38;;;;;;;0.60;0.10;;;10.90;1.00;;;;;;5033756;28;20479;-75
2022/04/16 06:42:07;;;;;;;0.60;0.10;;;10.80;1.00;;;;;;5034475;28;20451;-76
2022/04/16 06:44:35;;;;;;;0.67;0.27;;;10.80;1.00;;;;;;5033783;28;20531;-76
2022/04/16 06:47:03;;;;;;;1.80;1.20;;;10.80;1.00;;;;;;5034220;28;20450;-76
2022/04/16 06:49:31;;;;;;;0.60;0.10;;;10.80;1.00;;;;;;5034516;28;22058;-75
2022/04/16 06:51:59;;;;;;;0.60;0.10;;;10.80;1.00;;;;;;5033981;28;20490;-75
2022/04/16 06:54:26;;;;;;;1.97;1.30;;;10.80;1.00;;;;;;5035185;28;20510;-75
2022/04/16 06:56:54;;;;;;;2.53;2.17;;;10.80;1.00;;;;;;5036640;28;20450;-75
2022/04/16 06:59:23;;;;;;;0.60;0.10;;;10.80;1.00;;;;;;5036930;28;20457;-76
2022/04/16 07:01:51;;;;;;;1.57;0.43;;;10.80;1.00;;;;;;5035705;28;20479;-75
2022/04/16 07:04:19;;;;;;;1.10;0.60;;;10.80;1.00;;;;;;5034654;28;20801;-75
2022/04/16 07:06:47;;;;;;;2.83;2.30;;;10.80;1.00;;;;;;5034722;28;20461;-76
2022/04/16 07:09:15;;;;;;;0.70;0.40;;;10.80;1.00;;;;;;5033574;28;20542;-76
2022/04/16 07:11:43;;;;;;;1.00;0.47;;;10.80;1.00;;;;;;5034298;28;20467;-74
2022/04/16 07:14:10;;;;;;;0.90;0.53;;;10.90;1.00;;;;;;5033998;28;20443;-75
2022/04/16 07:16:40;;;;;;;0.90;0.20;;;10.90;1.00;;;;;;5033698;28;20451;-74
2022/04/16 07:19:09;;;;;;;0.60;0.20;;;11.00;1.00;;;;;;5034194;28;20453;-74
2022/04/16 07:21:36;;;;;;;0.60;0.20;;;11.20;1.00;;;;;;5034185;28;21054;-74
2022/04/16 07:24:05;;;;;;;1.07;0.53;;;11.20;1.00;;;;;;5033941;28;20454;-73
2022/04/16 07:26:33;;;;;;;0.60;0.10;;;11.30;1.00;;;;;;5033544;28;20448;-75
2022/04/16 07:29:01;;;;;;;0.80;0.80;;;11.30;1.00;;;;;;5034165;28;20820;-75
2022/04/16 07:31:29;;;;;;;0.60;0.10;;;11.30;1.00;;;;;;5034026;28;20518;-74
2022/04/16 07:33:58;;;;;;;0.67;0.43;;;11.30;1.00;;;;;;5034527;28;21000;-76
2022/04/16 07:36:26;;;;;;;0.60;0.10;;;11.30;1.00;;;;;;5033418;28;20491;-75
2022/04/16 07:38:54;;;;;;;0.60;0.30;;;11.30;1.00;;;;;;5034235;28;20814;-76
2022/04/16 07:41:22;;;;;;;0.83;0.50;;;11.40;99.90;;;;;;5033451;28;20468;-74
2022/04/16 07:43:50;;;;;;;0.70;0.30;;;11.40;99.90;;;;;;5034101;28;20562;-75
2022/04/16 07:46:21;;;;;;;0.90;0.77;;;11.30;99.90;;;;;;5033983;28;20445;-74
2022/04/16 07:48:50;;;;;;;2.33;1.37;;;11.30;99.90;;;;;;5033964;28;20440;-74
2022/04/16 07:51:19;;;;;;;0.60;0.10;;;11.00;99.90;;;;;;5033858;28;20969;-75
2022/04/16 07:53:47;;;;;;;1.07;0.77;;;11.00;99.90;;;;;;5034273;28;20447;-75
2022/04/16 07:56:15;;;;;;;2.30;1.70;;;11.00;1.00;;;;;;5033276;28;20482;-74
2022/04/16 07:58:43;;;;;;;5.50;1.53;;;11.00;1.00;;;;;;5033719;28;20450;-75
2022/04/16 08:01:11;;;;;;;0.60;0.30;;;11.40;1.00;;;;;;5033355;28;20447;-73
2022/04/16 08:03:39;;;;;;;0.60;0.20;;;11.40;1.00;;;;;;5032804;28;20481;-76
2022/04/16 08:06:06;;;;;;;1.23;1.10;;;11.50;99.90;;;;;;5032071;28;20467;-77
2022/04/16 08:08:36;;;;;;;0.60;0.17;;;11.50;99.90;;;;;;5032339;28;20457;-77
2022/04/16 08:11:04;;;;;;;2.57;2.00;;;11.60;99.90;;;;;;5032112;28;20443;-76
2022/04/16 08:13:32;;;;;;;0.60;0.20;;;11.60;99.90;;;;;;5026956;28;20459;-75
2022/04/16 08:16:00;;;;;;;3.13;0.53;;;11.70;99.90;;;;;;5031731;28;20475;-75
2022/04/16 08:18:28;;;;;;;0.70;0.40;;;11.80;99.90;;;;;;5031774;28;20447;-75
2022/04/16 08:20:56;;;;;;;0.70;0.40;;;11.80;99.90;;;;;;5032583;28;20454;-75
2022/04/16 08:23:24;;;;;;;0.60;0.10;;;11.70;99.90;;;;;;5030978;28;20467;-74
2022/04/16 08:25:53;;;;;;;1.47;1.13;;;11.90;99.90;;;;;;5031440;28;20443;-76
2022/04/16 08:28:21;;;;;;;0.70;0.27;;;11.80;99.90;;;;;;5031392;28;20454;-76
2022/04/16 08:30:50;;;;;;;1.17;1.07;;;11.90;99.90;;;;;;5031735;28;20473;-75
2022/04/16 08:33:18;;;;;;;1.60;1.30;;;11.80;99.90;;;;;;5031184;28;20459;-76
2022/04/16 08:35:47;;;;;;;0.60;0.10;;;11.70;99.90;;;;;;5031644;28;20481;-74
2022/04/16 08:38:15;;;;;;;1.87;1.07;;;11.80;99.90;;;;;;5031849;28;20454;-75
2022/04/16 08:40:43;;;;;;;0.60;0.10;;;11.90;99.90;;;;;;5041209;28;20444;-74
2022/04/16 08:43:15;;;;;;;0.60;0.10;;;11.90;99.90;;;;;;5037672;28;20504;-74
2022/04/16 08:45:43;;;;;;;0.60;0.10;;;11.90;99.90;;;;;;5034932;28;20523;-75
2022/04/16 08:48:14;;;;;;;1.43;0.73;;;12.00;99.90;;;;;;5033582;28;20815;-75
2022/04/16 08:50:43;;;;;;;1.50;1.40;;;12.00;99.90;;;;;;5032535;28;20442;-76
2022/04/16 08:53:11;;;;;;;0.87;0.30;;;12.10;99.90;;;;;;5031862;28;20463;-76
2022/04/16 08:55:39;;;;;;;1.07;0.40;;;12.10;99.90;;;;;;5032261;28;20475;-76
2022/04/16 08:58:07;;;;;;;1.00;0.60;;;12.30;99.90;;;;;;5031708;28;20478;-76
2022/04/16 09:00:36;;;;;;;0.60;0.10;;;12.30;99.90;;;;;;5032622;28;20579;-77
2022/04/16 09:03:06;;;;;;;0.60;0.10;;;12.30;99.90;;;;;;4996241;28;1061314;-78
2022/04/16 09:05:35;;;;;;;0.60;0.10;;;;;;;;;;5032299;28;20281;-76
2022/04/16 09:08:04;;;;;;;0.70;0.53;;;12.30;99.90;;;;;;5031996;28;20443;-75
2022/04/16 09:10:36;;;;;;;0.93;0.30;;;12.20;99.90;;;;;;5032839;28;20814;-77
2022/04/16 09:13:05;;;;;;;1.70;1.60;;;12.10;99.90;;;;;;5032422;28;20447;-77
2022/04/16 09:15:35;;;;;;;0.70;0.20;;;12.00;99.90;;;;;;5031780;28;20483;-76
2022/04/16 09:18:06;;;;;;;0.90;0.50;;;11.80;99.90;;;;;;5032116;28;20478;-76
2022/04/16 09:20:36;;;;;;;0.80;0.63;;;11.60;99.90;;;;;;5024277;28;20457;-75
2022/04/16 09:23:15;;;;;;;1.47;1.13;;;11.60;99.90;;;;;;5031938;28;20464;-75
2022/04/16 09:25:46;;;;;;;1.47;0.53;;;11.50;99.90;;;;;;5032721;28;20463;-74
2022/04/16 09:28:15;;;;;;;0.70;0.30;;;11.50;99.90;;;;;;5032186;28;20962;-76
2022/04/16 09:30:50;;;;;;;0.60;0.10;;;11.60;99.90;;;;;;5032593;28;20980;-75
2022/04/16 09:33:20;;;;;;;0.90;0.63;;;11.80;99.90;;;;;;5032026;28;20473;-76
2022/04/16 09:35:52;;;;;;;0.60;0.20;;;11.80;99.90;;;;;;5031603;28;20482;-76
2022/04/16 09:38:20;;;;;;;0.60;0.17;;;11.80;99.90;;;;;;5032366;28;20478;-76
2022/04/16 09:40:52;;;;;;;2.20;1.00;;;11.90;99.90;;;;;;5032662;28;20502;-77
2022/04/16 09:43:20;;;;;;;0.70;0.20;;;11.90;99.90;;;;;;5031760;28;21009;-76
2022/04/16 09:45:48;;;;;;;0.60;0.20;;;12.10;99.90;;;;;;5032370;28;20470;-77
2022/04/16 09:48:16;;;;;;;0.70;0.20;;;12.10;99.90;;;;;;5034894;28;20450;-76
2022/04/16 09:50:45;;;;;;;0.60;0.10;;;12.00;99.90;;;;;;5032876;28;20452;-77
2022/04/16 09:53:13;;;;;;;0.60;0.30;;;12.00;99.90;;;;;;5031878;28;20555;-77
2022/04/16 09:55:43;;;;;;;0.60;0.37;;;12.10;99.90;;;;;;5030605;28;21046;-77
2022/04/16 09:58:13;;;;;;;0.60;0.30;;;12.10;99.90;;;;;;5030932;28;20465;-76
2022/04/16 10:00:42;;;;;;;1.13;0.60;;;;;;;;;;5032164;28;20447;-76
2022/04/16 10:03:32;;;;;;;0.70;0.40;;;12.20;99.90;;;;;;5031056;28;20463;-75
2022/04/16 10:06:01;;;;;;;1.23;0.77;;;12.20;99.90;;;;;;5031509;28;20526;-74
2022/04/16 10:08:31;;;;;;;0.60;0.20;;;12.20;99.90;;;;;;5031278;28;20449;-77
2022/04/16 10:11:03;;;;;;;0.70;0.53;;;;;;;;;;5031935;28;20509;-75
2022/04/16 10:13:41;;;;;;;0.60;0.20;;;12.50;99.90;;;;;;5032794;28;20440;-76
2022/04/16 10:16:16;;;;;;;0.80;0.40;;;13.60;99.90;;;;;;5038612;28;20519;-76
2022/04/16 10:18:45;;;;;;;0.70;0.30;;;12.50;99.90;;;;;;5038097;28;20450;-75
2022/04/16 10:21:20;;;;;;;2.77;0.63;;;12.50;99.90;;;;;;5031721;28;20522;-74
2022/04/16 10:24:01;;;;;;;1.33;0.60;;;12.40;99.90;;;;;;5031829;28;20475;-77
2022/04/16 10:26:39;;;;;;;0.80;0.20;;;12.40;99.90;;;;;;5031177;28;20468;-76
2022/04/16 10:29:19;;;;;;;1.00;0.53;;;12.60;99.90;;;;;;5023934;28;20447;-77
2022/04/16 10:31:50;;;;;;;0.60;0.20;;;12.70;99.90;;;;;;5025993;28;20459;-76
2022/04/16 10:34:20;;;;;;;0.87;0.30;;;12.70;99.90;;;;;;5031831;28;20519;-76
2022/04/16 10:36:53;;;;;;;1.47;0.87;;;12.80;99.90;;;;;;5033194;28;20475;-76
2022/04/16 10:39:25;;;;;;;1.80;1.70;;;12.70;99.90;;;;;;5033370;28;20470;-76
2022/04/16 10:41:54;;;;;;;0.70;0.60;;;12.70;99.90;;;;;;5033568;28;20481;-75
2022/04/16 10:44:23;;;;;;;0.77;0.40;;;12.80;99.90;;;;;;5033134;28;20530;-74
2022/04/16 10:46:52;;;;;;;0.67;0.17;;;12.70;99.90;;;;;;5029021;28;20447;-77
2022/04/16 10:49:21;;;;;;;0.60;0.17;;;12.70;99.90;;;;;;5035475;28;20430;-75
2022/04/16 10:51:50;;;;;;;1.03;0.73;;;13.10;99.90;;;;;;5038875;28;20543;-75
2022/04/16 10:54:34;;;;;;;0.60;0.20;;;13.20;99.90;;;;;;5041674;28;20452;-77
2022/04/16 10:57:03;;;;;;;0.80;0.20;;;13.40;99.90;;;;;;5039117;28;20600;-75
2022/04/16 10:59:38;;;;;;;0.60;0.20;;;13.40;99.90;;;;;;5036300;28;20911;-75
2022/04/16 11:02:19;;;;;;;0.60;0.20;;;13.40;99.90;;;;;;5035929;28;20535;-76
2022/04/16 11:04:56;;;;;;;0.60;0.23;;;13.30;99.90;;;;;;5035515;28;20444;-76
2022/04/16 11:07:35;;;;;;;0.60;0.10;;;13.20;99.90;;;;;;5037102;28;20454;-76
2022/04/16 11:10:08;;;;;;;1.13;0.30;;;13.30;99.90;;;;;;5036402;28;20480;-76
2022/04/16 11:12:38;;;;;;;0.60;0.20;;;13.40;99.90;;;;;;5036631;28;20467;-77
2022/04/16 11:15:09;;;;;;;1.17;0.67;;;13.40;99.90;;;;;;5036304;28;20464;-77
2022/04/16 11:17:37;;;;;;;0.60;0.20;;;13.50;99.90;;;;;;5040839;28;20854;-77
2022/04/16 11:20:07;;;;;;;1.73;0.43;;;13.30;99.90;;;;;;5045379;28;20555;-76
2022/04/16 11:22:35;;;;;;;0.60;0.20;;;13.30;99.90;;;;;;5041191;28;20464;-77
2022/04/16 11:25:09;;;;;;;0.60;0.10;;;13.50;99.90;;;;;;5035597;28;20466;-75
2022/04/16 11:35:57;;;;;;;1.10;0.40;;;13.70;99.90;;;;;;5036391;28;20453;-75
2022/04/16 11:38:27;;;;;;;0.80;0.40;;;13.70;99.90;;;;;;5034797;28;20475;-77
2022/04/16 11:40:57;;;;;;;1.03;0.53;;;13.90;99.90;;;;;;5036171;28;20505;-77
2022/04/16 11:43:28;;;;;;;0.60;0.20;;;13.90;99.90;;;;;;5016485;28;20456;-76
2022/04/16 11:45:56;;;;;;;0.60;0.30;;;13.90;99.90;;;;;;5015803;28;20457;-76
2022/04/16 11:48:24;;;;;;;1.27;0.50;;;14.10;99.90;;;;;;5015507;28;20525;-77
2022/04/16 11:50:53;;;;;;;0.60;0.20;;;14.20;99.90;;;;;;5016876;28;20460;-75
2022/04/16 11:53:21;;;;;;;0.60;0.10;;;14.30;99.90;;;;;;5018113;28;20636;-75
2022/04/16 11:56:01;;;;;;;0.60;0.10;;;;;;;;;;5018372;28;20460;-76
2022/04/16 11:58:30;;;;;;;0.60;0.10;;;14.50;99.90;;;;;;5028043;28;20482;-76
2022/04/16 12:00:58;;;;;;;0.80;0.70;;;14.50;99.90;;;;;;5035765;28;20453;-76
2022/04/16 12:03:36;;;;;;;0.60;0.20;;;15.30;99.90;;;;;;5034964;28;20538;-75
2022/04/16 12:06:08;;;;;;;1.23;0.97;;;14.70;99.90;;;;;;5034983;28;20454;-76
2022/04/16 12:08:36;;;;;;;0.60;0.10;;;14.80;99.90;;;;;;5037143;28;20469;-78
2022/04/16 12:11:06;;;;;;;0.60;0.10;;;15.00;99.90;;;;;;5038449;28;20461;-75
2022/04/16 12:13:36;;;;;;;0.60;0.10;;;15.00;99.90;;;;;;5039360;28;20463;-74
2022/04/16 12:16:05;;;;;;;1.27;0.70;;;15.00;99.90;;;;;;5036038;28;20455;-76
2022/04/16 12:18:37;;;;;;;0.70;0.37;;;15.00;99.90;;;;;;5038917;28;20476;-76
2022/04/16 12:21:07;;;;;;;0.80;0.37;;;14.80;99.90;;;;;;5038487;28;20439;-75
2022/04/16 12:23:37;;;;;;;0.87;0.50;;;14.70;99.90;;;;;;5034807;28;20461;-74
2022/04/16 12:26:09;;;;;;;0.70;0.20;;;14.70;99.90;;;;;;5034171;28;20447;-76
2022/04/16 12:28:38;;;;;;;1.13;0.40;;;14.70;99.90;;;;;;5033976;28;20805;-75
2022/04/16 12:31:06;;;;;;;0.60;0.10;;;14.70;99.90;;;;;;5034857;28;20452;-75
2022/04/16 12:33:34;;;;;;;0.60;0.10;;;14.70;99.90;;;;;;5033917;28;20819;-75
2022/04/16 12:36:02;;;;;;;0.60;0.10;;;;;;;;;;5033889;28;20452;-76
2022/04/16 12:38:30;;;;;;;0.60;0.10;;;14.80;99.90;;;;;;5033918;28;20489;-75
2022/04/16 12:41:08;;;;;;;6.90;4.47;;;15.00;99.90;;;;;;5038553;28;20452;-75
2022/04/16 12:43:37;;;;;;;0.60;0.10;;;15.10;99.90;;;;;;5044876;28;20502;-75
2022/04/16 12:46:05;;;;;;;0.60;0.10;;;15.20;99.90;;;;;;5033558;28;20535;-75
2022/04/16 12:48:32;;;;;;;0.60;0.10;;;15.30;99.90;;;;;;5034652;28;20950;-76
2022/04/16 12:51:01;;;;;;;0.60;0.10;;;15.30;99.90;;;;;;5034412;28;20444;-76
2022/04/16 12:53:29;;;;;;;0.60;0.20;;;15.30;99.90;;;;;;5033428;28;20456;-77
2022/04/16 12:55:56;;;;;;;0.60;0.20;;;15.30;99.90;;;;;;5032323;28;20605;-75
2022/04/16 12:58:26;;;;;;;0.60;0.30;;;15.30;99.90;;;;;;5031985;28;20479;-77
2022/04/16 13:00:54;;;;;;;1.03;0.23;;;15.40;99.90;;;;;;5033849;28;20483;-74
2022/04/16 13:03:22;;;;;;;0.60;0.20;;;15.40;99.90;;;;;;5032803;28;20475;-76
2022/04/16 13:05:50;;;;;;;0.60;0.10;;;15.40;99.90;;;;;;5033690;28;20454;-77
2022/04/16 13:08:19;;;;;;;0.60;0.23;;;15.40;99.90;;;;;;5033076;28;20454;-76
2022/04/16 13:10:46;;;;;;;0.60;0.10;;;15.50;99.90;;;;;;5033588;28;20436;-77
2022/04/16 13:13:14;;;;;;;0.60;0.10;;;15.50;99.90;;;;;;5034501;28;20479;-77
2022/04/16 13:15:44;;;;;;;0.60;0.17;;;15.50;99.90;;;;;;5033785;28;20447;-75
2022/04/16 13:18:11;;;;;;;0.60;0.10;;;15.40;99.90;;;;;;5033887;28;20481;-76
2022/04/16 13:20:39;;;;;;;0.60;0.10;;;15.40;99.90;;;;;;5034446;28;20853;-77
2022/04/16 13:23:07;;;;;;;0.70;0.20;;;15.60;99.90;;;;;;5033246;28;20456;-74
2022/04/16 13:25:35;;;;;;;0.60;0.10;;;15.80;99.90;;;;;;5033079;28;20446;-77